sensor_id;sensor_type;location;lat;lon;timestamp;temperature;humidity
11549;DHT22;61444;59.472;18.306;2023-08-31T00:03:56;12.10;99.90
11549;DHT22;61444;59.472;18.306;2023-08-31T00:06:06;12.10;99.90
11549;DHT22;61444;59.472;18.306;2023-08-31T00:47:04;11.90;99.90
11549;DHT22;61444;59.472;18.306;2023-08-31T00:49:12;11.90;99.90
11549;DHT22;61444;59.472;18.306;2023-08-31T00:51:21;11.90;99.90
11549;DHT22;61444;59.472;18.306;2023-08-31T00:53:30;11.90;99.90
11549;DHT22;61444;59.472;18.306;2023-08-31T00:55:37;11.90;99.90
11549;DHT22;61444;59.472;18.306;2023-08-31T00:57:46;11.90;99.90
11549;DHT22;61444;59.472;18.306;2023-08-31T00:59:56;11.90;99.90
11549;DHT22;61444;59.472;18.306;2023-08-31T01:02:11;11.90;99.90
11549;DHT22;61444;59.472;18.306;2023-08-31T01:04:29;11.80;99.90
11549;DHT22;61444;59.472;18.306;2023-08-31T01:06:46;11.90;99.90
11549;DHT22;61444;59.472;18.306;2023-08-31T01:09:01;11.80;99.90
11549;DHT22;61444;59.472;18.306;2023-08-31T01:11:22;11.80;99.90
11549;DHT22;61444;59.472;18.306;2023-08-31T01:13:33;11.80;99.90
11549;DHT22;61444;59.472;18.306;2023-08-31T01:15:46;11.80;99.90
11549;DHT22;61444;59.472;18.306;2023-08-31T01:17:59;11.80;99.90
11549;DHT22;61444;59.472;18.306;2023-08-31T01:20:09;11.80;99.90
11549;DHT22;61444;59.472;18.306;2023-08-31T01:22:25;11.80;99.90
11549;DHT22;61444;59.472;18.306;2023-08-31T01:24:37;11.80;99.90
11549;DHT22;61444;59.472;18.306;2023-08-31T01:26:46;11.80;99.90
11549;DHT22;61444;59.472;18.306;2023-08-31T01:28:55;11.80;99.90
11549;DHT22;61444;59.472;18.306;2023-08-31T01:31:04;11.80;99.90
11549;DHT22;61444;59.472;18.306;2023-08-31T01:33:12;11.80;99.90
11549;DHT22;61444;59.472;18.306;2023-08-31T01:35:21;11.80;99.90
11549;DHT22;61444;59.472;18.306;2023-08-31T01:37:36;11.80;99.90
11549;DHT22;61444;59.472;18.306;2023-08-31T01:39:54;11.80;99.90
11549;DHT22;61444;59.472;18.306;2023-08-31T01:42:05;11.80;99.90
11549;DHT22;61444;59.472;18.306;2023-08-31T01:44:16;11.80;99.90
11549;DHT22;61444;59.472;18.306;2023-08-31T01:46:26;11.80;99.90
11549;DHT22;61444;59.472;18.306;2023-08-31T01:48:38;11.80;99.90
11549;DHT22;61444;59.472;18.306;2023-08-31T01:50:47;11.80;99.90
11549;DHT22;61444;59.472;18.306;2023-08-31T01:52:55;11.80;99.90
11549;DHT22;61444;59.472;18.306;2023-08-31T01:55:05;11.80;99.90
11549;DHT22;61444;59.472;18.306;2023-08-31T01:57:14;11.80;99.90
11549;DHT22;61444;59.472;18.306;2023-08-31T02:07:58;11.90;99.90
11549;DHT22;61444;59.472;18.306;2023-08-31T02:10:08;11.80;99.90
11549;DHT22;61444;59.472;18.306;2023-08-31T02:12:16;11.80;99.90
11549;DHT22;61444;59.472;18.306;2023-08-31T02:14:25;11.80;99.90
11549;DHT22;61444;59.472;18.306;2023-08-31T02:16:33;11.80;99.90
11549;DHT22;61444;59.472;18.306;2023-08-31T02:20:52;11.70;99.90
11549;DHT22;61444;59.472;18.306;2023-08-31T02:25:10;11.70;99.90
11549;DHT22;61444;59.472;18.306;2023-08-31T02:27:19;11.70;99.90
11549;DHT22;61444;59.472;18.306;2023-08-31T02:29:28;11.70;99.90
11549;DHT22;61444;59.472;18.306;2023-08-31T02:31:36;11.70;99.90
11549;DHT22;61444;59.472;18.306;2023-08-31T02:33:45;11.70;99.90
11549;DHT22;61444;59.472;18.306;2023-08-31T02:35:54;11.70;99.90
11549;DHT22;61444;59.472;18.306;2023-08-31T02:38:02;11.70;99.90
11549;DHT22;61444;59.472;18.306;2023-08-31T02:40:12;11.70;99.90
11549;DHT22;61444;59.472;18.306;2023-08-31T02:42:22;11.70;99.90
11549;DHT22;61444;59.472;18.306;2023-08-31T02:46:39;11.70;99.90
11549;DHT22;61444;59.472;18.306;2023-08-31T02:48:47;11.70;99.90
11549;DHT22;61444;59.472;18.306;2023-08-31T02:50:56;11.70;99.90
11549;DHT22;61444;59.472;18.306;2023-08-31T02:53:05;9.80;99.90
11549;DHT22;61444;59.472;18.306;2023-08-31T02:55:15;11.60;99.90
11549;DHT22;61444;59.472;18.306;2023-08-31T02:57:23;11.60;99.90
11549;DHT22;61444;59.472;18.306;2023-08-31T03:01:42;11.60;99.90
11549;DHT22;61444;59.472;18.306;2023-08-31T03:03:53;11.60;99.90
11549;DHT22;61444;59.472;18.306;2023-08-31T03:06:01;11.60;99.90
11549;DHT22;61444;59.472;18.306;2023-08-31T03:08:10;11.60;99.90
11549;DHT22;61444;59.472;18.306;2023-08-31T03:10:21;11.60;99.90
11549;DHT22;61444;59.472;18.306;2023-08-31T03:16:47;11.70;99.90
11549;DHT22;61444;59.472;18.306;2023-08-31T03:18:55;11.60;99.90
11549;DHT22;61444;59.472;18.306;2023-08-31T03:21:03;11.70;99.90
11549;DHT22;61444;59.472;18.306;2023-08-31T03:23:12;11.60;99.90
11549;DHT22;61444;59.472;18.306;2023-08-31T03:25:21;11.60;99.90
11549;DHT22;61444;59.472;18.306;2023-08-31T03:27:31;11.60;99.90
11549;DHT22;61444;59.472;18.306;2023-08-31T03:29:39;11.60;99.90
11549;DHT22;61444;59.472;18.306;2023-08-31T03:31:47;11.60;99.90
11549;DHT22;61444;59.472;18.306;2023-08-31T03:33:56;11.60;99.90
11549;DHT22;61444;59.472;18.306;2023-08-31T03:36:04;11.60;99.90
11549;DHT22;61444;59.472;18.306;2023-08-31T03:38:13;11.60;99.90
11549;DHT22;61444;59.472;18.306;2023-08-31T03:40:21;11.60;99.90
11549;DHT22;61444;59.472;18.306;2023-08-31T03:42:30;11.60;99.90
11549;DHT22;61444;59.472;18.306;2023-08-31T03:44:38;11.60;99.90
11549;DHT22;61444;59.472;18.306;2023-08-31T03:53:11;11.70;99.90
11549;DHT22;61444;59.472;18.306;2023-08-31T03:55:20;11.70;99.90
11549;DHT22;61444;59.472;18.306;2023-08-31T03:57:29;11.70;99.90
11549;DHT22;61444;59.472;18.306;2023-08-31T03:59:37;11.70;99.90
11549;DHT22;61444;59.472;18.306;2023-08-31T04:01:45;11.70;99.90
11549;DHT22;61444;59.472;18.306;2023-08-31T04:03:53;11.70;99.90
11549;DHT22;61444;59.472;18.306;2023-08-31T04:06:02;11.70;99.90
11549;DHT22;61444;59.472;18.306;2023-08-31T04:08:12;11.70;99.90
11549;DHT22;61444;59.472;18.306;2023-08-31T04:10:21;11.80;99.90
11549;DHT22;61444;59.472;18.306;2023-08-31T04:12:30;11.80;99.90
11549;DHT22;61444;59.472;18.306;2023-08-31T04:14:37;11.80;99.90
11549;DHT22;61444;59.472;18.306;2023-08-31T04:16:45;11.80;99.90
11549;DHT22;61444;59.472;18.306;2023-08-31T04:18:57;11.80;99.90
11549;DHT22;61444;59.472;18.306;2023-08-31T04:21:05;11.80;99.90
11549;DHT22;61444;59.472;18.306;2023-08-31T04:23:14;11.80;99.90
11549;DHT22;61444;59.472;18.306;2023-08-31T04:25:24;11.80;99.90
11549;DHT22;61444;59.472;18.306;2023-08-31T04:27:32;11.90;99.90
11549;DHT22;61444;59.472;18.306;2023-08-31T04:29:40;11.90;99.90
11549;DHT22;61444;59.472;18.306;2023-08-31T04:31:48;12.00;99.90
11549;DHT22;61444;59.472;18.306;2023-08-31T04:33:57;12.00;99.90
11549;DHT22;61444;59.472;18.306;2023-08-31T04:36:05;12.00;99.90
11549;DHT22;61444;59.472;18.306;2023-08-31T04:38:13;12.00;99.90
11549;DHT22;61444;59.472;18.306;2023-08-31T04:40:21;12.10;99.90
11549;DHT22;61444;59.472;18.306;2023-08-31T04:42:31;12.10;99.90
11549;DHT22;61444;59.472;18.306;2023-08-31T04:44:39;12.10;99.90
11549;DHT22;61444;59.472;18.306;2023-08-31T04:46:47;12.20;99.90
11549;DHT22;61444;59.472;18.306;2023-08-31T04:48:55;12.20;99.90
11549;DHT22;61444;59.472;18.306;2023-08-31T04:51:04;12.00;99.90
11549;DHT22;61444;59.472;18.306;2023-08-31T04:55:21;12.30;99.90
11549;DHT22;61444;59.472;18.306;2023-08-31T04:57:31;12.30;99.90
11549;DHT22;61444;59.472;18.306;2023-08-31T04:59:39;12.30;99.90
11549;DHT22;61444;59.472;18.306;2023-08-31T05:01:47;12.30;99.90
11549;DHT22;61444;59.472;18.306;2023-08-31T05:03:55;12.30;99.90
11549;DHT22;61444;59.472;18.306;2023-08-31T05:06:04;12.40;99.90
11549;DHT22;61444;59.472;18.306;2023-08-31T05:08:12;12.40;99.90
11549;DHT22;61444;59.472;18.306;2023-08-31T05:12:30;12.40;99.90
11549;DHT22;61444;59.472;18.306;2023-08-31T05:14:39;12.40;99.90
11549;DHT22;61444;59.472;18.306;2023-08-31T05:16:47;12.40;99.90
11549;DHT22;61444;59.472;18.306;2023-08-31T05:18:55;12.50;99.90
11549;DHT22;61444;59.472;18.306;2023-08-31T05:21:03;12.40;99.90
11549;DHT22;61444;59.472;18.306;2023-08-31T05:23:12;12.50;99.90
11549;DHT22;61444;59.472;18.306;2023-08-31T05:25:20;12.50;99.90
11549;DHT22;61444;59.472;18.306;2023-08-31T05:27:35;12.50;99.90
11549;DHT22;61444;59.472;18.306;2023-08-31T05:29:43;12.60;99.90
11549;DHT22;61444;59.472;18.306;2023-08-31T05:31:52;12.70;99.90
11549;DHT22;61444;59.472;18.306;2023-08-31T05:34:00;12.70;99.90
11549;DHT22;61444;59.472;18.306;2023-08-31T05:36:08;12.80;99.90
11549;DHT22;61444;59.472;18.306;2023-08-31T05:38:16;12.80;99.90
11549;DHT22;61444;59.472;18.306;2023-08-31T05:40:24;12.90;99.90
11549;DHT22;61444;59.472;18.306;2023-08-31T05:42:34;12.90;99.90
11549;DHT22;61444;59.472;18.306;2023-08-31T05:44:42;12.90;99.90
11549;DHT22;61444;59.472;18.306;2023-08-31T05:46:50;12.90;99.90
11549;DHT22;61444;59.472;18.306;2023-08-31T05:48:58;12.90;99.90
11549;DHT22;61444;59.472;18.306;2023-08-31T05:51:07;13.00;99.90
11549;DHT22;61444;59.472;18.306;2023-08-31T05:53:15;13.00;99.90
11549;DHT22;61444;59.472;18.306;2023-08-31T05:55:23;13.00;99.90
11549;DHT22;61444;59.472;18.306;2023-08-31T05:57:31;13.10;99.90
11549;DHT22;61444;59.472;18.306;2023-08-31T05:59:41;13.10;99.90
11549;DHT22;61444;59.472;18.306;2023-08-31T06:01:49;13.10;99.90
11549;DHT22;61444;59.472;18.306;2023-08-31T06:04:02;13.10;99.90
11549;DHT22;61444;59.472;18.306;2023-08-31T06:06:10;13.20;99.90
11549;DHT22;61444;59.472;18.306;2023-08-31T06:08:18;13.30;99.90
11549;DHT22;61444;59.472;18.306;2023-08-31T06:10:27;13.30;99.90
11549;DHT22;61444;59.472;18.306;2023-08-31T06:12:36;13.40;99.90
11549;DHT22;61444;59.472;18.306;2023-08-31T06:14:46;13.50;99.90
11549;DHT22;61444;59.472;18.306;2023-08-31T06:16:54;13.60;99.90
11549;DHT22;61444;59.472;18.306;2023-08-31T06:19:02;13.70;99.90
11549;DHT22;61444;59.472;18.306;2023-08-31T06:49:02;14.40;99.90
11549;DHT22;61444;59.472;18.306;2023-08-31T06:51:11;14.40;99.90
11549;DHT22;61444;59.472;18.306;2023-08-31T06:53:20;14.50;99.90
11549;DHT22;61444;59.472;18.306;2023-08-31T06:55:28;14.50;99.90
11549;DHT22;61444;59.472;18.306;2023-08-31T06:57:36;14.60;99.90
11549;DHT22;61444;59.472;18.306;2023-08-31T06:59:44;14.60;99.90
11549;DHT22;61444;59.472;18.306;2023-08-31T07:01:55;14.60;99.90
11549;DHT22;61444;59.472;18.306;2023-08-31T07:04:04;14.60;99.90
11549;DHT22;61444;59.472;18.306;2023-08-31T07:06:12;14.70;99.90
11549;DHT22;61444;59.472;18.306;2023-08-31T07:08:20;14.80;99.90
11549;DHT22;61444;59.472;18.306;2023-08-31T07:10:29;14.80;99.90
11549;DHT22;61444;59.472;18.306;2023-08-31T07:12:37;14.90;99.90
11549;DHT22;61444;59.472;18.306;2023-08-31T07:14:45;14.90;99.90
11549;DHT22;61444;59.472;18.306;2023-08-31T07:16:54;14.90;99.90
11549;DHT22;61444;59.472;18.306;2023-08-31T07:19:03;15.00;99.90
11549;DHT22;61444;59.472;18.306;2023-08-31T07:21:11;15.10;99.90
11549;DHT22;61444;59.472;18.306;2023-08-31T07:23:20;15.30;99.90
11549;DHT22;61444;59.472;18.306;2023-08-31T07:25:29;15.30;99.90
11549;DHT22;61444;59.472;18.306;2023-08-31T07:27:37;15.40;99.90
11549;DHT22;61444;59.472;18.306;2023-08-31T07:29:45;15.40;99.90
11549;DHT22;61444;59.472;18.306;2023-08-31T07:31:55;15.50;99.90
11549;DHT22;61444;59.472;18.306;2023-08-31T07:34:03;15.60;99.90
11549;DHT22;61444;59.472;18.306;2023-08-31T07:36:11;15.50;99.90
11549;DHT22;61444;59.472;18.306;2023-08-31T07:38:22;15.70;99.90
11549;DHT22;61444;59.472;18.306;2023-08-31T07:40:30;15.80;99.90
11549;DHT22;61444;59.472;18.306;2023-08-31T07:42:38;15.80;99.90
11549;DHT22;61444;59.472;18.306;2023-08-31T07:44:47;15.80;99.90
11549;DHT22;61444;59.472;18.306;2023-08-31T07:46:56;15.70;99.90
11549;DHT22;61444;59.472;18.306;2023-08-31T07:49:04;15.70;99.90
11549;DHT22;61444;59.472;18.306;2023-08-31T07:51:13;15.80;99.90
11549;DHT22;61444;59.472;18.306;2023-08-31T07:53:21;16.00;99.90
11549;DHT22;61444;59.472;18.306;2023-08-31T07:55:29;16.10;99.90
11549;DHT22;61444;59.472;18.306;2023-08-31T07:57:37;16.20;99.90
11549;DHT22;61444;59.472;18.306;2023-08-31T07:59:45;16.40;99.90
11549;DHT22;61444;59.472;18.306;2023-08-31T08:01:53;16.40;99.90
11549;DHT22;61444;59.472;18.306;2023-08-31T08:04:03;16.60;99.90
11549;DHT22;61444;59.472;18.306;2023-08-31T08:06:12;16.30;99.90
11549;DHT22;61444;59.472;18.306;2023-08-31T08:08:20;16.20;99.90
